createdAt,value
2017-11-30T00:01:19.459Z,90.50
2017-11-30T00:03:47.745Z,90.40
2017-11-30T00:06:15.297Z,90.90
2017-11-30T00:08:42.863Z,90.90
2017-11-30T00:11:10.911Z,90.70
2017-11-30T00:13:39.093Z,90.60
2017-11-30T00:16:07.142Z,90.80
2017-11-30T00:18:35.226Z,91.00
2017-11-30T00:21:03.302Z,91.00
2017-11-30T00:23:31.359Z,90.00
2017-11-30T00:25:59.426Z,88.50
2017-11-30T00:28:27.515Z,89.80
2017-11-30T00:30:55.695Z,90.10
2017-11-30T00:33:24.904Z,90.10
2017-11-30T00:35:52.985Z,89.70
2017-11-30T00:38:21.452Z,90.00
2017-11-30T00:40:49.926Z,90.20
2017-11-30T00:43:30.077Z,90.50
2017-11-30T00:45:58.151Z,89.90
2017-11-30T00:48:26.223Z,89.70
2017-11-30T00:50:54.298Z,88.60
2017-11-30T00:53:22.458Z,89.60
2017-11-30T00:55:51.372Z,89.00
2017-11-30T00:58:19.413Z,89.00
2017-11-30T01:00:47.503Z,89.90
2017-11-30T01:03:15.559Z,89.30
2017-11-30T01:05:43.641Z,89.00
2017-11-30T01:08:11.736Z,89.50
2017-11-30T01:10:39.799Z,90.50
2017-11-30T01:13:07.863Z,90.70
2017-11-30T01:15:35.931Z,89.60
2017-11-30T01:18:04.387Z,89.60
2017-11-30T01:20:33.354Z,89.90
2017-11-30T01:23:01.479Z,89.60
2017-11-30T01:25:29.547Z,89.20
2017-11-30T01:27:57.646Z,89.30
2017-11-30T01:30:25.805Z,90.00
2017-11-30T01:32:53.866Z,88.80
2017-11-30T01:35:21.940Z,89.30
2017-11-30T01:37:50.007Z,88.60
2017-11-30T01:40:18.594Z,87.80
2017-11-30T01:42:46.646Z,88.50
2017-11-30T01:45:14.742Z,89.00
2017-11-30T01:47:42.803Z,89.90
2017-11-30T01:50:10.867Z,89.90
2017-11-30T01:52:38.959Z,90.00
2017-11-30T01:55:07.026Z,89.70
2017-11-30T01:57:35.102Z,90.10
2017-11-30T02:00:03.274Z,90.00
2017-11-30T02:02:31.449Z,90.00
2017-11-30T02:04:59.509Z,90.40
2017-11-30T02:07:27.593Z,90.10
2017-11-30T02:09:55.654Z,90.50
2017-11-30T02:12:23.740Z,90.70
2017-11-30T02:14:51.822Z,90.70
2017-11-30T02:17:19.982Z,90.60
2017-11-30T02:19:48.038Z,90.80
2017-11-30T02:22:16.127Z,90.90
2017-11-30T02:24:44.177Z,90.80
2017-11-30T02:27:12.243Z,90.70
2017-11-30T02:29:40.342Z,90.30
2017-11-30T02:32:08.407Z,90.50
2017-11-30T02:34:37.249Z,90.80
2017-11-30T02:37:05.302Z,90.80
2017-11-30T02:39:33.401Z,90.50
2017-11-30T02:42:01.528Z,90.40
2017-11-30T02:44:29.595Z,90.70
2017-11-30T02:46:57.672Z,90.70
2017-11-30T02:49:26.864Z,91.10
2017-11-30T02:51:55.035Z,91.20
2017-11-30T02:54:23.114Z,91.20
2017-11-30T02:56:51.291Z,90.90
2017-11-30T02:59:19.346Z,90.80
2017-11-30T03:01:47.437Z,90.50
2017-11-30T03:04:15.602Z,90.70
2017-11-30T03:06:44.510Z,90.40
2017-11-30T03:09:12.671Z,90.30
2017-11-30T03:11:41.508Z,90.60
2017-11-30T03:14:09.626Z,90.60
2017-11-30T03:16:37.706Z,90.40
2017-11-30T03:19:05.794Z,90.00
2017-11-30T03:21:33.955Z,90.60
2017-11-30T03:24:02.126Z,90.10
2017-11-30T03:26:30.178Z,90.10
2017-11-30T03:28:58.367Z,90.40
2017-11-30T03:31:26.437Z,90.60
2017-11-30T03:33:54.521Z,90.80
2017-11-30T03:36:22.693Z,90.40
2017-11-30T03:38:51.986Z,90.60
2017-11-30T03:41:20.063Z,90.70
2017-11-30T03:43:48.122Z,91.00
2017-11-30T03:46:16.218Z,90.60
2017-11-30T03:48:44.279Z,90.50
2017-11-30T03:51:12.456Z,90.40
2017-11-30T03:53:40.510Z,90.10
2017-11-30T03:56:08.566Z,90.10
2017-11-30T03:58:36.661Z,90.50
2017-11-30T04:01:04.735Z,90.10
2017-11-30T04:03:33.018Z,90.20
2017-11-30T04:06:01.090Z,90.30
2017-11-30T04:08:29.163Z,90.40
2017-11-30T04:10:57.229Z,90.00
2017-11-30T04:13:25.308Z,89.70
2017-11-30T04:15:53.368Z,90.30
2017-11-30T04:18:21.831Z,89.80
2017-11-30T04:20:49.887Z,89.10
2017-11-30T04:23:18.834Z,88.40
2017-11-30T04:25:46.999Z,86.10
2017-11-30T04:28:15.063Z,87.70
2017-11-30T04:30:43.133Z,89.00
2017-11-30T04:33:11.331Z,90.20
2017-11-30T04:35:39.486Z,90.40
2017-11-30T04:38:07.938Z,89.20
2017-11-30T04:40:36.780Z,89.00
2017-11-30T04:43:04.934Z,87.90
2017-11-30T04:45:32.994Z,88.40
2017-11-30T04:48:01.055Z,88.60
2017-11-30T04:50:29.117Z,86.80
2017-11-30T04:52:58.043Z,86.00
2017-11-30T04:55:26.207Z,87.60
2017-11-30T04:57:54.284Z,88.20
2017-11-30T05:00:22.455Z,88.00
2017-11-30T05:02:50.923Z,88.60
2017-11-30T05:05:18.990Z,88.60
2017-11-30T05:07:47.043Z,88.80
2017-11-30T05:10:15.976Z,91.40
2017-11-30T05:12:44.523Z,89.30
2017-11-30T05:15:13.451Z,89.20
2017-11-30T05:17:42.444Z,87.40
2017-11-30T05:20:10.504Z,85.70
2017-11-30T05:22:39.107Z,86.50
2017-11-30T05:25:07.215Z,85.10
2017-11-30T05:27:35.690Z,86.30
2017-11-30T05:30:04.158Z,85.80
2017-11-30T05:32:32.605Z,86.90
2017-11-30T05:35:01.078Z,87.00
2017-11-30T05:37:29.525Z,86.80
2017-11-30T05:39:57.983Z,87.60
2017-11-30T05:42:26.956Z,86.50
2017-11-30T05:44:55.018Z,86.50
2017-11-30T05:47:23.862Z,87.50
2017-11-30T05:49:52.155Z,89.40
2017-11-30T05:52:20.675Z,90.10
2017-11-30T05:54:49.514Z,90.20
2017-11-30T05:57:17.975Z,90.60
2017-11-30T05:59:46.032Z,90.60
2017-11-30T06:02:14.597Z,90.40
2017-11-30T06:04:43.423Z,90.30
2017-11-30T06:07:11.551Z,90.40
2017-11-30T06:09:40.554Z,90.30
2017-11-30T06:12:09.042Z,89.70
2017-11-30T06:14:37.098Z,89.60
2017-11-30T06:17:05.577Z,90.00
2017-11-30T06:19:34.390Z,90.30
2017-11-30T06:22:02.490Z,82.00
2017-11-30T06:24:30.548Z,81.70
2017-11-30T06:26:59.375Z,82.40
2017-11-30T06:29:28.199Z,81.50
2017-11-30T06:31:56.255Z,81.30
2017-11-30T06:34:24.313Z,81.40
2017-11-30T06:36:53.154Z,83.10
2017-11-30T06:39:22.383Z,83.70
2017-11-30T06:41:50.438Z,83.90
2017-11-30T06:44:18.886Z,83.10
2017-11-30T06:46:46.953Z,84.10
2017-11-30T06:49:15.009Z,83.60
2017-11-30T06:51:43.483Z,83.70
2017-11-30T06:54:11.550Z,84.00
2017-11-30T06:56:40.389Z,85.10
2017-11-30T06:59:08.498Z,83.30
2017-11-30T07:01:37.317Z,84.10
2017-11-30T07:04:05.382Z,83.60
2017-11-30T07:06:34.210Z,84.10
2017-11-30T07:09:02.275Z,84.60
2017-11-30T07:11:30.355Z,84.60
2017-11-30T07:13:58.514Z,85.30
2017-11-30T07:16:26.572Z,85.20
2017-11-30T07:18:54.655Z,86.00
2017-11-30T07:21:22.730Z,86.30
2017-11-30T07:23:51.198Z,85.90
2017-11-30T07:26:19.264Z,85.70
2017-11-30T07:28:47.350Z,85.50
2017-11-30T07:31:15.386Z,84.50
2017-11-30T07:33:44.207Z,83.50
2017-11-30T07:36:12.283Z,78.30
2017-11-30T07:38:40.344Z,73.00
2017-11-30T07:41:08.424Z,69.30
2017-11-30T07:43:36.502Z,66.60
2017-11-30T07:46:04.591Z,63.50
2017-11-30T07:48:32.651Z,61.30
2017-11-30T07:51:00.717Z,57.50
2017-11-30T07:53:28.774Z,57.60
2017-11-30T07:55:56.841Z,58.00
2017-11-30T07:58:25.662Z,54.60
2017-11-30T08:00:53.714Z,50.40
2017-11-30T08:03:22.175Z,48.00
2017-11-30T08:05:51.655Z,46.10
2017-11-30T08:08:20.507Z,46.20
2017-11-30T08:10:48.085Z,46.30
2017-11-30T08:13:15.589Z,46.80
2017-11-30T08:15:43.858Z,53.30
2017-11-30T08:18:12.130Z,55.60
2017-11-30T08:20:40.393Z,53.00
2017-11-30T08:23:08.687Z,56.50
2017-11-30T08:25:36.203Z,58.10
2017-11-30T08:28:03.719Z,61.20
2017-11-30T08:30:31.990Z,63.00
2017-11-30T08:32:59.970Z,64.10
2017-11-30T08:35:28.770Z,67.20
2017-11-30T08:37:56.383Z,66.60
2017-11-30T08:40:23.885Z,67.00
2017-11-30T08:42:51.814Z,68.70
2017-11-30T08:45:19.787Z,70.30
2017-11-30T08:47:48.611Z,71.40
2017-11-30T08:50:17.449Z,71.10
2017-11-30T08:52:45.908Z,70.80
2017-11-30T08:55:14.371Z,69.80
2017-11-30T08:57:42.441Z,72.00
2017-11-30T09:00:10.503Z,72.10
2017-11-30T09:02:38.576Z,72.70
2017-11-30T09:05:07.027Z,72.60
2017-11-30T09:07:35.873Z,69.70
2017-11-30T09:10:04.694Z,66.80
2017-11-30T09:12:32.762Z,67.40
2017-11-30T09:15:00.819Z,64.60
2017-11-30T09:17:28.474Z,55.20
2017-11-30T09:19:56.385Z,43.00
2017-11-30T09:22:25.140Z,37.60
2017-11-30T09:24:53.134Z,37.40
2017-11-30T09:27:21.155Z,40.70
2017-11-30T09:29:49.636Z,46.30
2017-11-30T09:32:17.707Z,48.60
2017-11-30T09:34:45.763Z,52.20
2017-11-30T09:37:14.183Z,55.00
2017-11-30T09:39:42.238Z,55.70
2017-11-30T09:42:10.413Z,62.10
2017-11-30T09:44:38.583Z,63.10
2017-11-30T09:47:06.750Z,65.40
2017-11-30T09:49:35.217Z,64.20
2017-11-30T09:52:03.280Z,63.70
2017-11-30T09:54:31.366Z,67.30
2017-11-30T09:56:59.422Z,64.70
2017-11-30T09:59:27.506Z,62.10
2017-11-30T10:01:55.559Z,64.60
2017-11-30T10:04:24.031Z,61.80
2017-11-30T10:06:52.491Z,61.40
2017-11-30T10:09:20.587Z,62.60
2017-11-30T10:11:49.112Z,59.90
2017-11-30T10:14:17.279Z,60.80
2017-11-30T10:16:46.174Z,62.10
2017-11-30T10:19:14.239Z,62.50
2017-11-30T10:21:42.699Z,65.60
2017-11-30T10:24:10.800Z,64.80
2017-11-30T10:26:38.858Z,66.70
2017-11-30T10:29:06.914Z,65.80
2017-11-30T10:31:35.847Z,66.80
2017-11-30T10:34:04.719Z,66.20
2017-11-30T10:36:32.787Z,65.90
2017-11-30T10:39:00.870Z,68.60
2017-11-30T10:41:29.450Z,67.30
2017-11-30T10:43:57.506Z,69.60
2017-11-30T10:46:25.590Z,69.20
2017-11-30T10:48:53.650Z,71.20
2017-11-30T10:51:21.704Z,72.80
2017-11-30T10:53:50.555Z,74.10
2017-11-30T10:56:18.611Z,75.60
2017-11-30T10:58:46.667Z,75.90
2017-11-30T11:01:15.187Z,75.70
2017-11-30T11:03:42.781Z,77.40
2017-11-30T11:06:11.067Z,78.00
2017-11-30T11:08:38.594Z,79.20
2017-11-30T11:11:06.502Z,79.80
2017-11-30T11:13:34.046Z,79.30
2017-11-30T11:16:01.551Z,78.50
2017-11-30T11:18:29.058Z,77.40
2017-11-30T11:20:56.590Z,78.00
2017-11-30T11:23:24.489Z,76.00
2017-11-30T11:25:52.782Z,75.90
2017-11-30T11:28:21.038Z,71.10
2017-11-30T11:30:49.034Z,68.20
2017-11-30T11:33:17.099Z,67.70
2017-11-30T11:35:45.457Z,70.40
2017-11-30T11:38:13.447Z,70.30
2017-11-30T11:40:41.536Z,71.80
2017-11-30T11:43:09.597Z,74.20
2017-11-30T11:45:37.658Z,74.50
2017-11-30T11:48:05.755Z,73.30
2017-11-30T11:50:33.820Z,73.00
2017-11-30T11:53:01.891Z,71.60
2017-11-30T11:55:31.089Z,71.10
2017-11-30T11:57:59.283Z,70.50
2017-11-30T12:00:27.687Z,69.50
2017-11-30T12:02:55.767Z,71.60
2017-11-30T12:05:24.219Z,73.20
2017-11-30T12:07:52.299Z,72.80
2017-11-30T12:10:20.362Z,72.60
2017-11-30T12:12:48.423Z,71.70
2017-11-30T12:15:16.486Z,71.40
2017-11-30T12:17:44.583Z,72.30
2017-11-30T12:20:13.029Z,75.40
2017-11-30T12:22:41.095Z,78.20
2017-11-30T12:25:09.171Z,78.30
2017-11-30T12:27:37.241Z,78.70
2017-11-30T12:30:05.695Z,78.10
2017-11-30T12:32:34.532Z,80.30
2017-11-30T12:35:02.698Z,78.10
2017-11-30T12:37:30.765Z,78.20
2017-11-30T12:39:58.810Z,77.70
2017-11-30T12:42:27.660Z,78.80
2017-11-30T12:44:56.160Z,76.80
2017-11-30T12:47:24.227Z,77.40
2017-11-30T12:49:52.363Z,77.80
2017-11-30T12:52:20.435Z,76.70
2017-11-30T12:54:49.263Z,75.50
2017-11-30T12:57:18.845Z,74.80
2017-11-30T12:59:46.897Z,75.30
2017-11-30T13:02:14.972Z,78.70
2017-11-30T13:04:43.041Z,73.90
2017-11-30T13:07:11.089Z,71.90
2017-11-30T13:09:39.173Z,73.00
2017-11-30T13:12:07.274Z,75.90
2017-11-30T13:14:35.302Z,75.00
2017-11-30T13:17:04.125Z,76.30
2017-11-30T13:19:32.185Z,73.70
2017-11-30T13:22:00.258Z,73.20
2017-11-30T13:24:28.309Z,72.40
2017-11-30T13:26:56.389Z,75.20
2017-11-30T13:29:24.461Z,76.00
2017-11-30T13:31:52.564Z,76.60
2017-11-30T13:34:20.597Z,74.40
2017-11-30T13:36:48.653Z,76.10
2017-11-30T13:39:17.489Z,77.80
2017-11-30T13:41:45.537Z,78.50
2017-11-30T13:44:13.609Z,78.60
2017-11-30T13:46:41.665Z,76.50
2017-11-30T13:49:10.513Z,72.90
2017-11-30T13:51:38.660Z,74.20
2017-11-30T13:54:06.737Z,73.80
2017-11-30T13:56:34.813Z,74.60
2017-11-30T13:59:02.870Z,74.90
2017-11-30T14:01:30.947Z,75.20
2017-11-30T14:03:59.021Z,77.60
2017-11-30T14:06:27.073Z,77.70
2017-11-30T14:08:55.124Z,77.60
2017-11-30T14:11:23.961Z,77.00
2017-11-30T14:13:52.127Z,76.90
2017-11-30T14:16:20.300Z,76.20
2017-11-30T14:18:48.373Z,76.00
2017-11-30T14:21:16.444Z,76.70
2017-11-30T14:23:44.497Z,78.30
2017-11-30T14:26:12.553Z,78.70
2017-11-30T14:28:41.392Z,80.70
2017-11-30T14:31:09.453Z,82.10
2017-11-30T14:33:37.525Z,81.30
2017-11-30T14:36:05.711Z,81.60
2017-11-30T14:38:33.852Z,82.60
2017-11-30T14:41:01.909Z,82.80
2017-11-30T14:43:30.741Z,84.20
2017-11-30T14:45:58.810Z,83.60
2017-11-30T14:48:26.861Z,84.10
2017-11-30T14:50:54.934Z,84.00
2017-11-30T14:53:23.005Z,85.10
2017-11-30T14:55:51.457Z,86.00
2017-11-30T14:58:20.276Z,86.40
2017-11-30T15:00:48.353Z,85.60
2017-11-30T15:03:16.809Z,84.40
2017-11-30T15:05:45.649Z,81.80
2017-11-30T15:08:13.726Z,78.90
2017-11-30T15:10:41.794Z,79.70
2017-11-30T15:13:10.262Z,80.00
2017-11-30T15:15:38.364Z,79.60
2017-11-30T15:18:06.401Z,80.20
2017-11-30T15:20:34.453Z,80.50
2017-11-30T15:23:02.550Z,81.10
2017-11-30T15:25:30.610Z,81.10
2017-11-30T15:27:58.711Z,81.00
2017-11-30T15:30:26.770Z,81.10
2017-11-30T15:32:54.841Z,80.50
2017-11-30T15:35:22.892Z,79.70
2017-11-30T15:37:50.966Z,79.20
2017-11-30T15:40:19.033Z,80.10
2017-11-30T15:42:47.088Z,82.60
2017-11-30T15:45:15.160Z,85.60
2017-11-30T15:47:43.226Z,84.60
2017-11-30T15:50:12.063Z,83.10
2017-11-30T15:52:40.147Z,83.90
2017-11-30T15:55:08.714Z,82.60
2017-11-30T15:57:36.786Z,83.80
2017-11-30T16:00:04.844Z,85.80
2017-11-30T16:02:32.917Z,85.10
2017-11-30T16:05:01.002Z,86.10
2017-11-30T16:07:29.167Z,85.40
2017-11-30T16:09:57.261Z,85.30
2017-11-30T16:12:25.421Z,85.80
2017-11-30T16:14:53.477Z,86.20
2017-11-30T16:17:21.537Z,86.60
2017-11-30T16:19:49.609Z,87.10
2017-11-30T16:22:17.801Z,87.80
2017-11-30T16:24:45.886Z,87.90
2017-11-30T16:27:14.456Z,88.00
2017-11-30T16:29:42.529Z,88.10
2017-11-30T16:32:10.592Z,89.10
2017-11-30T16:34:38.670Z,89.60
2017-11-30T16:37:06.741Z,89.50
2017-11-30T16:39:34.801Z,87.90
2017-11-30T16:42:02.878Z,88.10
2017-11-30T16:44:30.965Z,89.40
2017-11-30T16:46:59.142Z,89.40
2017-11-30T16:49:27.192Z,87.80
2017-11-30T16:51:55.264Z,89.20
2017-11-30T16:54:23.325Z,89.90
2017-11-30T16:56:52.245Z,89.40
2017-11-30T16:59:20.288Z,88.70
2017-11-30T17:01:49.207Z,90.00
2017-11-30T17:04:17.265Z,89.80
2017-11-30T17:06:45.761Z,89.70
2017-11-30T17:09:13.822Z,89.00
2017-11-30T17:11:41.876Z,90.00
2017-11-30T17:14:10.797Z,90.80
2017-11-30T17:16:38.865Z,90.90
2017-11-30T17:19:06.952Z,91.10
2017-11-30T17:21:35.118Z,91.30
2017-11-30T17:24:03.190Z,91.60
2017-11-30T17:26:31.357Z,91.80
2017-11-30T17:28:59.440Z,91.80
2017-11-30T17:31:27.512Z,91.90
2017-11-30T17:33:55.577Z,92.10
2017-11-30T17:36:23.658Z,92.20
2017-11-30T17:38:51.705Z,92.10
2017-11-30T17:41:19.893Z,92.20
2017-11-30T17:43:47.944Z,92.10
2017-11-30T17:46:15.997Z,92.20
2017-11-30T17:48:44.846Z,92.50
2017-11-30T17:51:13.004Z,92.40
2017-11-30T17:53:41.187Z,92.40
2017-11-30T17:56:09.354Z,92.60
2017-11-30T17:58:37.428Z,92.30
2017-11-30T18:01:05.596Z,92.50
2017-11-30T18:03:34.045Z,92.40
2017-11-30T18:06:02.885Z,92.70
2017-11-30T18:08:30.998Z,92.60
2017-11-30T18:10:59.049Z,92.50
2017-11-30T18:13:27.190Z,92.50
2017-11-30T18:15:56.095Z,92.60
2017-11-30T18:18:24.166Z,92.10
2017-11-30T18:20:52.204Z,91.70
2017-11-30T18:23:20.293Z,90.70
2017-11-30T18:25:48.336Z,89.90
2017-11-30T18:28:17.156Z,90.40
2017-11-30T18:30:45.234Z,89.00
2017-11-30T18:33:13.396Z,89.40
2017-11-30T18:35:41.444Z,89.20
2017-11-30T18:38:10.269Z,89.30
2017-11-30T18:40:38.334Z,88.80
2017-11-30T18:43:06.404Z,90.00
2017-11-30T18:45:34.446Z,90.40
2017-11-30T18:48:03.268Z,90.50
2017-11-30T18:50:31.312Z,90.10
2017-11-30T18:52:59.435Z,89.70
2017-11-30T18:55:27.580Z,90.40
2017-11-30T18:57:55.643Z,90.00
2017-11-30T19:00:23.728Z,90.10
2017-11-30T19:02:52.202Z,90.30
2017-11-30T19:05:20.236Z,90.40
2017-11-30T19:07:49.173Z,90.50
2017-11-30T19:10:17.248Z,90.20
2017-11-30T19:12:45.309Z,90.50
2017-11-30T19:15:13.441Z,90.40
2017-11-30T19:17:42.909Z,90.30
2017-11-30T19:20:10.957Z,90.60
2017-11-30T19:22:39.038Z,90.50
2017-11-30T19:25:07.125Z,90.60
2017-11-30T19:27:35.169Z,90.70
2017-11-30T19:30:03.252Z,90.60
2017-11-30T19:32:31.329Z,90.70
2017-11-30T19:34:59.388Z,90.80
2017-11-30T19:37:27.434Z,91.10
2017-11-30T19:39:56.369Z,91.30
2017-11-30T19:42:24.459Z,91.10
2017-11-30T19:44:52.605Z,91.10
2017-11-30T19:47:20.657Z,91.40
2017-11-30T19:49:49.489Z,91.70
2017-11-30T19:52:17.548Z,90.70
2017-11-30T19:54:45.617Z,90.50
2017-11-30T19:57:13.684Z,90.70
2017-11-30T19:59:41.756Z,90.20
2017-11-30T20:02:11.053Z,91.30
2017-11-30T20:04:39.229Z,90.50
2017-11-30T20:07:07.669Z,90.70
2017-11-30T20:09:35.788Z,90.70
2017-11-30T20:12:03.832Z,90.40
2017-11-30T20:14:32.680Z,90.70
2017-11-30T20:17:00.812Z,90.10
2017-11-30T20:19:28.893Z,88.80
2017-11-30T20:21:56.969Z,89.10
2017-11-30T20:24:25.022Z,90.00
2017-11-30T20:26:53.107Z,89.70
2017-11-30T20:29:21.165Z,90.10
2017-11-30T20:31:49.675Z,89.80
2017-11-30T20:34:17.737Z,90.10
2017-11-30T20:36:46.930Z,90.20
2017-11-30T20:39:14.990Z,90.00
2017-11-30T20:41:43.084Z,90.90
2017-11-30T20:44:11.249Z,90.50
2017-11-30T20:46:39.320Z,90.70
2017-11-30T20:49:07.393Z,90.60
2017-11-30T20:51:35.465Z,90.50
2017-11-30T20:54:03.538Z,89.50
2017-11-30T20:56:33.041Z,88.80
2017-11-30T20:59:01.118Z,88.30
2017-11-30T21:01:29.285Z,88.80
2017-11-30T21:03:58.130Z,88.80
2017-11-30T21:06:26.570Z,88.30
2017-11-30T21:08:55.022Z,89.30
2017-11-30T21:11:23.108Z,88.40
2017-11-30T21:13:51.152Z,88.60
2017-11-30T21:16:20.082Z,89.10
2017-11-30T21:18:48.148Z,88.50
2017-11-30T21:21:16.631Z,88.70
2017-11-30T21:23:44.673Z,89.80
2017-11-30T21:26:12.768Z,90.20
2017-11-30T21:28:40.821Z,90.10
2017-11-30T21:31:09.270Z,89.80
2017-11-30T21:33:37.818Z,92.50
2017-11-30T21:36:06.740Z,92.40
2017-11-30T21:38:35.551Z,88.30
2017-11-30T21:41:04.440Z,82.80
2017-11-30T21:43:32.893Z,78.60
2017-11-30T21:46:05.990Z,75.30
2017-11-30T21:48:34.409Z,69.60
2017-11-30T21:51:02.477Z,69.40
2017-11-30T21:53:31.301Z,71.00
2017-11-30T21:56:00.128Z,75.00
2017-11-30T21:58:28.666Z,78.60
2017-11-30T22:00:57.957Z,81.00
2017-11-30T22:03:26.769Z,84.50
2017-11-30T22:05:54.820Z,83.00
2017-11-30T22:08:23.272Z,83.30
2017-11-30T22:10:52.083Z,83.80
2017-11-30T22:13:20.526Z,84.40
2017-11-30T22:15:48.589Z,85.50
2017-11-30T22:18:18.157Z,87.70
2017-11-30T22:20:46.230Z,87.00
2017-11-30T22:23:14.288Z,84.80
2017-11-30T22:25:42.487Z,83.60
2017-11-30T22:28:11.297Z,85.30
2017-11-30T22:30:40.974Z,85.40
2017-11-30T22:33:09.073Z,85.00
2017-11-30T22:35:37.117Z,86.50
2017-11-30T22:38:05.168Z,84.80
2017-11-30T22:40:33.669Z,84.70
2017-11-30T22:43:02.528Z,84.60
2017-11-30T22:45:31.036Z,83.90
2017-11-30T22:47:59.498Z,81.90
2017-11-30T22:50:27.598Z,81.60
2017-11-30T22:52:55.774Z,83.10
2017-11-30T22:55:23.832Z,82.90
2017-11-30T22:57:51.905Z,81.70
2017-11-30T23:00:20.730Z,81.30
2017-11-30T23:02:49.569Z,80.80
2017-11-30T23:05:18.073Z,81.70
2017-11-30T23:07:46.130Z,82.00
2017-11-30T23:10:14.589Z,82.80
2017-11-30T23:12:43.512Z,83.30
2017-11-30T23:15:11.581Z,83.00
2017-11-30T23:17:39.646Z,84.00
2017-11-30T23:20:07.728Z,83.80
2017-11-30T23:22:36.953Z,84.10
2017-11-30T23:25:05.009Z,84.20
2017-11-30T23:27:33.490Z,83.40
2017-11-30T23:30:01.661Z,84.10
2017-11-30T23:32:30.545Z,84.10
2017-11-30T23:34:58.621Z,85.50
2017-11-30T23:37:27.810Z,86.10
2017-11-30T23:39:56.297Z,86.30
2017-11-30T23:42:24.803Z,85.80
2017-11-30T23:44:52.954Z,84.00
2017-11-30T23:47:21.129Z,82.80
2017-11-30T23:49:49.200Z,81.60
2017-11-30T23:52:17.240Z,83.20
2017-11-30T23:54:45.713Z,82.50
2017-11-30T23:57:14.533Z,83.10
2017-11-30T23:59:42.980Z,83.00
